sensor_id;sensor_type;location;lat;lon;timestamp;temperature;humidity
21031;DHT22;61072;47.808;7.636;2023-03-01T00:01:17;0.10;99.90
21031;DHT22;61072;47.808;7.636;2023-03-01T00:03:44;0.10;99.90
21031;DHT22;61072;47.808;7.636;2023-03-01T00:06:11;0.10;99.90
21031;DHT22;61072;47.808;7.636;2023-03-01T00:08:38;0.00;99.90
21031;DHT22;61072;47.808;7.636;2023-03-01T00:11:26;0.00;99.90
21031;DHT22;61072;47.808;7.636;2023-03-01T00:13:55;0.00;99.90
21031;DHT22;61072;47.808;7.636;2023-03-01T00:16:28;0.00;99.90
21031;DHT22;61072;47.808;7.636;2023-03-01T00:18:56;0.00;99.90
21031;DHT22;61072;47.808;7.636;2023-03-01T00:21:24;-0.10;99.90
21031;DHT22;61072;47.808;7.636;2023-03-01T00:23:51;-0.10;99.90
21031;DHT22;61072;47.808;7.636;2023-03-01T00:26:20;-0.10;99.90
21031;DHT22;61072;47.808;7.636;2023-03-01T00:28:47;-0.10;99.90
21031;DHT22;61072;47.808;7.636;2023-03-01T00:31:17;-0.10;99.90
21031;DHT22;61072;47.808;7.636;2023-03-01T00:33:44;-0.10;99.90
21031;DHT22;61072;47.808;7.636;2023-03-01T00:36:12;-0.10;99.90
21031;DHT22;61072;47.808;7.636;2023-03-01T00:38:42;-0.10;99.90
21031;DHT22;61072;47.808;7.636;2023-03-01T00:41:12;-0.10;99.90
21031;DHT22;61072;47.808;7.636;2023-03-01T00:43:39;-0.10;99.90
21031;DHT22;61072;47.808;7.636;2023-03-01T00:46:14;-0.20;99.90
21031;DHT22;61072;47.808;7.636;2023-03-01T00:48:41;-0.20;99.90
21031;DHT22;61072;47.808;7.636;2023-03-01T00:51:16;-0.20;99.90
21031;DHT22;61072;47.808;7.636;2023-03-01T00:53:44;-0.20;99.90
21031;DHT22;61072;47.808;7.636;2023-03-01T00:56:13;-0.20;99.90
21031;DHT22;61072;47.808;7.636;2023-03-01T00:58:41;-0.20;99.90
21031;DHT22;61072;47.808;7.636;2023-03-01T01:01:10;-0.20;99.90
21031;DHT22;61072;47.808;7.636;2023-03-01T01:03:51;-0.30;99.90
21031;DHT22;61072;47.808;7.636;2023-03-01T01:06:21;-0.30;99.90
21031;DHT22;61072;47.808;7.636;2023-03-01T01:08:50;-0.30;99.90
21031;DHT22;61072;47.808;7.636;2023-03-01T01:11:17;-0.30;99.90
21031;DHT22;61072;47.808;7.636;2023-03-01T01:13:46;-0.30;99.90
21031;DHT22;61072;47.808;7.636;2023-03-01T01:16:14;-0.30;99.90
21031;DHT22;61072;47.808;7.636;2023-03-01T01:18:41;-0.40;99.90
21031;DHT22;61072;47.808;7.636;2023-03-01T01:21:11;-0.40;99.90
21031;DHT22;61072;47.808;7.636;2023-03-01T01:23:39;-0.40;99.90
21031;DHT22;61072;47.808;7.636;2023-03-01T01:26:09;-0.30;99.90
21031;DHT22;61072;47.808;7.636;2023-03-01T01:28:36;-0.40;99.90
21031;DHT22;61072;47.808;7.636;2023-03-01T01:31:03;-0.40;99.90
21031;DHT22;61072;47.808;7.636;2023-03-01T01:33:31;-0.40;99.90
21031;DHT22;61072;47.808;7.636;2023-03-01T01:35:57;-0.40;99.90
21031;DHT22;61072;47.808;7.636;2023-03-01T01:38:24;-0.40;99.90
21031;DHT22;61072;47.808;7.636;2023-03-01T01:40:51;-0.40;99.90
21031;DHT22;61072;47.808;7.636;2023-03-01T01:43:24;-0.50;99.90
21031;DHT22;61072;47.808;7.636;2023-03-01T01:46:05;-0.50;99.90
21031;DHT22;61072;47.808;7.636;2023-03-01T01:48:46;-0.50;99.90
21031;DHT22;61072;47.808;7.636;2023-03-01T01:51:17;-0.50;99.90
21031;DHT22;61072;47.808;7.636;2023-03-01T01:53:47;-0.50;99.90
21031;DHT22;61072;47.808;7.636;2023-03-01T01:56:15;-0.50;99.90
21031;DHT22;61072;47.808;7.636;2023-03-01T01:58:43;-0.50;99.90
21031;DHT22;61072;47.808;7.636;2023-03-01T02:01:11;-0.60;99.90
21031;DHT22;61072;47.808;7.636;2023-03-01T02:03:39;-0.60;99.90
21031;DHT22;61072;47.808;7.636;2023-03-01T02:06:17;-0.60;99.90
21031;DHT22;61072;47.808;7.636;2023-03-01T02:08:47;-0.60;99.90
21031;DHT22;61072;47.808;7.636;2023-03-01T02:11:15;-0.60;99.90
21031;DHT22;61072;47.808;7.636;2023-03-01T02:13:44;-0.70;99.90
21031;DHT22;61072;47.808;7.636;2023-03-01T02:16:14;-0.70;99.90
21031;DHT22;61072;47.808;7.636;2023-03-01T02:18:42;-0.70;99.90
21031;DHT22;61072;47.808;7.636;2023-03-01T02:23:54;-0.80;99.90
21031;DHT22;61072;47.808;7.636;2023-03-01T02:26:41;-0.70;99.90
21031;DHT22;61072;47.808;7.636;2023-03-01T02:29:09;-0.80;99.90
21031;DHT22;61072;47.808;7.636;2023-03-01T02:31:35;-0.70;99.90
21031;DHT22;61072;47.808;7.636;2023-03-01T02:34:12;-0.80;99.90
21031;DHT22;61072;47.808;7.636;2023-03-01T02:36:47;-0.80;99.90
21031;DHT22;61072;47.808;7.636;2023-03-01T02:39:18;-0.80;99.90
21031;DHT22;61072;47.808;7.636;2023-03-01T02:41:50;-0.80;99.90
21031;DHT22;61072;47.808;7.636;2023-03-01T02:44:18;-0.80;99.90
21031;DHT22;61072;47.808;7.636;2023-03-01T02:46:51;-0.80;99.90
21031;DHT22;61072;47.808;7.636;2023-03-01T02:49:24;-0.80;99.90
21031;DHT22;61072;47.808;7.636;2023-03-01T02:51:52;-0.80;99.90
21031;DHT22;61072;47.808;7.636;2023-03-01T02:57:08;-0.90;99.90
21031;DHT22;61072;47.808;7.636;2023-03-01T02:59:36;-0.90;99.90
21031;DHT22;61072;47.808;7.636;2023-03-01T03:02:20;-0.90;99.90
21031;DHT22;61072;47.808;7.636;2023-03-01T03:05:11;-0.90;99.90
21031;DHT22;61072;47.808;7.636;2023-03-01T03:07:41;-0.90;99.90
21031;DHT22;61072;47.808;7.636;2023-03-01T03:10:18;-0.90;99.90
21031;DHT22;61072;47.808;7.636;2023-03-01T03:12:50;-0.90;99.90
21031;DHT22;61072;47.808;7.636;2023-03-01T03:15:18;-1.00;99.90
21031;DHT22;61072;47.808;7.636;2023-03-01T03:17:45;-1.00;99.90
21031;DHT22;61072;47.808;7.636;2023-03-01T03:20:14;-1.00;99.90
21031;DHT22;61072;47.808;7.636;2023-03-01T03:22:47;-1.00;99.90
21031;DHT22;61072;47.808;7.636;2023-03-01T03:25:15;-1.00;99.90
21031;DHT22;61072;47.808;7.636;2023-03-01T03:27:44;-1.00;99.90
21031;DHT22;61072;47.808;7.636;2023-03-01T03:30:16;-1.00;99.90
21031;DHT22;61072;47.808;7.636;2023-03-01T03:32:45;-1.00;99.90
21031;DHT22;61072;47.808;7.636;2023-03-01T03:35:21;-1.10;99.90
21031;DHT22;61072;47.808;7.636;2023-03-01T03:37:48;-1.10;99.90
21031;DHT22;61072;47.808;7.636;2023-03-01T03:40:38;-1.10;99.90
21031;DHT22;61072;47.808;7.636;2023-03-01T03:43:13;-1.10;99.90
21031;DHT22;61072;47.808;7.636;2023-03-01T03:45:40;-1.10;99.90
21031;DHT22;61072;47.808;7.636;2023-03-01T03:48:08;-1.10;99.90
21031;DHT22;61072;47.808;7.636;2023-03-01T03:50:39;-1.20;99.90
21031;DHT22;61072;47.808;7.636;2023-03-01T03:53:09;-1.10;99.90
21031;DHT22;61072;47.808;7.636;2023-03-01T03:55:37;-1.20;99.90
21031;DHT22;61072;47.808;7.636;2023-03-01T03:58:09;-1.10;99.90
21031;DHT22;61072;47.808;7.636;2023-03-01T04:00:39;-1.20;99.90
21031;DHT22;61072;47.808;7.636;2023-03-01T04:03:07;-1.20;99.90
21031;DHT22;61072;47.808;7.636;2023-03-01T04:05:34;-1.20;99.90
21031;DHT22;61072;47.808;7.636;2023-03-01T04:08:02;-1.20;99.90
21031;DHT22;61072;47.808;7.636;2023-03-01T04:10:31;-1.20;99.90
21031;DHT22;61072;47.808;7.636;2023-03-01T04:12:58;-1.20;99.90
21031;DHT22;61072;47.808;7.636;2023-03-01T04:15:26;-1.20;99.90
21031;DHT22;61072;47.808;7.636;2023-03-01T04:17:54;-1.30;99.90
21031;DHT22;61072;47.808;7.636;2023-03-01T04:20:25;-1.30;99.90
21031;DHT22;61072;47.808;7.636;2023-03-01T04:25:24;-1.30;99.90
21031;DHT22;61072;47.808;7.636;2023-03-01T04:27:50;-1.40;99.90
21031;DHT22;61072;47.808;7.636;2023-03-01T04:30:17;-1.40;99.90
21031;DHT22;61072;47.808;7.636;2023-03-01T04:32:44;-1.40;99.90
21031;DHT22;61072;47.808;7.636;2023-03-01T04:35:10;-1.40;99.90
21031;DHT22;61072;47.808;7.636;2023-03-01T04:37:37;-1.40;99.90
21031;DHT22;61072;47.808;7.636;2023-03-01T04:40:04;-1.40;99.90
21031;DHT22;61072;47.808;7.636;2023-03-01T04:42:43;-1.40;99.90
21031;DHT22;61072;47.808;7.636;2023-03-01T04:45:10;-1.40;99.90
21031;DHT22;61072;47.808;7.636;2023-03-01T04:47:40;-1.40;99.90
21031;DHT22;61072;47.808;7.636;2023-03-01T04:50:08;-1.50;99.90
21031;DHT22;61072;47.808;7.636;2023-03-01T04:52:35;-1.50;99.90
21031;DHT22;61072;47.808;7.636;2023-03-01T04:55:03;-1.50;99.90
21031;DHT22;61072;47.808;7.636;2023-03-01T04:57:30;-1.50;99.90
21031;DHT22;61072;47.808;7.636;2023-03-01T04:59:57;-1.50;99.90
21031;DHT22;61072;47.808;7.636;2023-03-01T05:02:24;-1.50;99.90
21031;DHT22;61072;47.808;7.636;2023-03-01T05:04:51;-1.50;99.90
21031;DHT22;61072;47.808;7.636;2023-03-01T05:07:18;-1.50;99.90
21031;DHT22;61072;47.808;7.636;2023-03-01T05:09:46;-1.50;99.90
21031;DHT22;61072;47.808;7.636;2023-03-01T05:12:13;-1.50;99.90
21031;DHT22;61072;47.808;7.636;2023-03-01T05:14:41;-1.50;99.90
21031;DHT22;61072;47.808;7.636;2023-03-01T05:17:08;-1.50;99.90
21031;DHT22;61072;47.808;7.636;2023-03-01T05:19:34;-1.60;99.90
21031;DHT22;61072;47.808;7.636;2023-03-01T05:22:01;-1.60;99.90
21031;DHT22;61072;47.808;7.636;2023-03-01T05:24:28;-1.60;99.90
21031;DHT22;61072;47.808;7.636;2023-03-01T05:26:55;-1.60;99.90
21031;DHT22;61072;47.808;7.636;2023-03-01T05:29:23;-1.60;99.90
21031;DHT22;61072;47.808;7.636;2023-03-01T05:31:59;-1.70;99.90
21031;DHT22;61072;47.808;7.636;2023-03-01T05:34:27;-1.70;99.90
21031;DHT22;61072;47.808;7.636;2023-03-01T05:36:54;-1.70;99.90
21031;DHT22;61072;47.808;7.636;2023-03-01T05:39:23;-1.70;99.90
21031;DHT22;61072;47.808;7.636;2023-03-01T05:41:58;-1.70;99.90
21031;DHT22;61072;47.808;7.636;2023-03-01T05:44:25;-1.70;99.90
21031;DHT22;61072;47.808;7.636;2023-03-01T05:46:53;-1.70;99.90
21031;DHT22;61072;47.808;7.636;2023-03-01T05:49:20;-1.70;99.90
21031;DHT22;61072;47.808;7.636;2023-03-01T05:51:52;-1.70;99.90
21031;DHT22;61072;47.808;7.636;2023-03-01T05:54:20;-1.70;99.90
21031;DHT22;61072;47.808;7.636;2023-03-01T05:56:48;-1.70;99.90
21031;DHT22;61072;47.808;7.636;2023-03-01T05:59:15;-1.70;99.90
21031;DHT22;61072;47.808;7.636;2023-03-01T06:01:42;-1.70;99.90
21031;DHT22;61072;47.808;7.636;2023-03-01T06:04:10;-1.70;99.90
21031;DHT22;61072;47.808;7.636;2023-03-01T06:06:37;-1.70;99.90
21031;DHT22;61072;47.808;7.636;2023-03-01T06:09:05;-1.70;99.90
21031;DHT22;61072;47.808;7.636;2023-03-01T06:11:34;-1.70;99.90
21031;DHT22;61072;47.808;7.636;2023-03-01T06:14:01;-1.70;99.90
21031;DHT22;61072;47.808;7.636;2023-03-01T06:16:28;-1.70;99.90
21031;DHT22;61072;47.808;7.636;2023-03-01T06:18:55;-1.70;99.90
21031;DHT22;61072;47.808;7.636;2023-03-01T06:21:22;-1.70;99.90
21031;DHT22;61072;47.808;7.636;2023-03-01T06:23:49;-1.70;99.90
21031;DHT22;61072;47.808;7.636;2023-03-01T06:26:16;-1.80;99.90
21031;DHT22;61072;47.808;7.636;2023-03-01T06:28:42;-1.80;99.90
21031;DHT22;61072;47.808;7.636;2023-03-01T06:31:12;-1.80;99.90
21031;DHT22;61072;47.808;7.636;2023-03-01T06:33:39;-1.80;99.90
21031;DHT22;61072;47.808;7.636;2023-03-01T06:36:06;-1.80;99.90
21031;DHT22;61072;47.808;7.636;2023-03-01T06:38:34;-1.80;99.90
21031;DHT22;61072;47.808;7.636;2023-03-01T06:41:00;-1.70;99.90
21031;DHT22;61072;47.808;7.636;2023-03-01T06:43:28;-1.70;99.90
21031;DHT22;61072;47.808;7.636;2023-03-01T06:45:55;-1.60;99.90
21031;DHT22;61072;47.808;7.636;2023-03-01T06:48:22;-1.60;99.90
21031;DHT22;61072;47.808;7.636;2023-03-01T06:50:49;-1.50;99.90
21031;DHT22;61072;47.808;7.636;2023-03-01T06:53:15;-1.50;99.90
21031;DHT22;61072;47.808;7.636;2023-03-01T06:55:42;-1.40;99.90
21031;DHT22;61072;47.808;7.636;2023-03-01T06:58:09;-1.40;99.90
21031;DHT22;61072;47.808;7.636;2023-03-01T07:00:36;-1.30;99.90
21031;DHT22;61072;47.808;7.636;2023-03-01T07:03:03;-1.20;99.90
21031;DHT22;61072;47.808;7.636;2023-03-01T07:05:30;-1.10;99.90
21031;DHT22;61072;47.808;7.636;2023-03-01T07:07:57;-1.00;99.90
21031;DHT22;61072;47.808;7.636;2023-03-01T07:10:24;-1.00;99.90
21031;DHT22;61072;47.808;7.636;2023-03-01T07:12:55;-0.90;99.90
21031;DHT22;61072;47.808;7.636;2023-03-01T07:15:21;-0.80;99.90
21031;DHT22;61072;47.808;7.636;2023-03-01T07:17:48;-0.80;99.90
21031;DHT22;61072;47.808;7.636;2023-03-01T07:20:18;-0.70;99.90
21031;DHT22;61072;47.808;7.636;2023-03-01T07:22:45;-0.60;99.90
21031;DHT22;61072;47.808;7.636;2023-03-01T07:25:12;-0.50;99.90
21031;DHT22;61072;47.808;7.636;2023-03-01T07:27:39;-0.50;99.90
21031;DHT22;61072;47.808;7.636;2023-03-01T07:30:06;-0.40;99.90
21031;DHT22;61072;47.808;7.636;2023-03-01T07:32:33;-0.30;99.90
21031;DHT22;61072;47.808;7.636;2023-03-01T07:34:59;-0.20;99.90
21031;DHT22;61072;47.808;7.636;2023-03-01T07:37:26;-0.10;99.90
21031;DHT22;61072;47.808;7.636;2023-03-01T07:39:53;-0.10;99.90
21031;DHT22;61072;47.808;7.636;2023-03-01T07:42:19;0.00;99.90
21031;DHT22;61072;47.808;7.636;2023-03-01T07:44:46;0.10;99.90
21031;DHT22;61072;47.808;7.636;2023-03-01T07:47:13;0.20;99.90
21031;DHT22;61072;47.808;7.636;2023-03-01T07:49:39;0.20;99.90
21031;DHT22;61072;47.808;7.636;2023-03-01T07:52:06;0.30;99.90
21031;DHT22;61072;47.808;7.636;2023-03-01T07:54:33;0.40;99.90
21031;DHT22;61072;47.808;7.636;2023-03-01T07:57:00;0.40;99.90
21031;DHT22;61072;47.808;7.636;2023-03-01T07:59:26;0.50;99.90
21031;DHT22;61072;47.808;7.636;2023-03-01T08:01:56;0.60;99.90
21031;DHT22;61072;47.808;7.636;2023-03-01T08:04:23;0.60;99.90
21031;DHT22;61072;47.808;7.636;2023-03-01T08:06:51;0.60;99.90
21031;DHT22;61072;47.808;7.636;2023-03-01T08:09:18;0.60;99.90
21031;DHT22;61072;47.808;7.636;2023-03-01T08:11:44;0.70;99.90
21031;DHT22;61072;47.808;7.636;2023-03-01T08:14:11;0.70;99.90
21031;DHT22;61072;47.808;7.636;2023-03-01T08:16:38;0.70;99.90
21031;DHT22;61072;47.808;7.636;2023-03-01T08:19:07;0.70;99.90
21031;DHT22;61072;47.808;7.636;2023-03-01T08:21:34;0.80;99.90
21031;DHT22;61072;47.808;7.636;2023-03-01T08:24:05;0.80;99.90
21031;DHT22;61072;47.808;7.636;2023-03-01T08:26:33;0.80;99.90
21031;DHT22;61072;47.808;7.636;2023-03-01T08:29:00;0.80;99.90
21031;DHT22;61072;47.808;7.636;2023-03-01T08:31:31;0.90;99.90
21031;DHT22;61072;47.808;7.636;2023-03-01T08:34:01;0.90;99.90
21031;DHT22;61072;47.808;7.636;2023-03-01T08:36:31;0.80;99.90
21031;DHT22;61072;47.808;7.636;2023-03-01T08:38:59;0.90;99.90
21031;DHT22;61072;47.808;7.636;2023-03-01T08:41:26;1.00;99.90
21031;DHT22;61072;47.808;7.636;2023-03-01T08:43:54;1.00;99.90
21031;DHT22;61072;47.808;7.636;2023-03-01T08:46:29;1.10;99.90
21031;DHT22;61072;47.808;7.636;2023-03-01T08:48:57;1.20;99.90
21031;DHT22;61072;47.808;7.636;2023-03-01T08:51:25;1.20;99.90
21031;DHT22;61072;47.808;7.636;2023-03-01T08:53:52;1.30;99.90
21031;DHT22;61072;47.808;7.636;2023-03-01T08:56:19;1.40;99.90
21031;DHT22;61072;47.808;7.636;2023-03-01T08:58:47;1.40;99.90
21031;DHT22;61072;47.808;7.636;2023-03-01T09:01:16;1.50;99.90
21031;DHT22;61072;47.808;7.636;2023-03-01T09:03:44;1.60;99.90
21031;DHT22;61072;47.808;7.636;2023-03-01T09:06:11;1.70;99.90
21031;DHT22;61072;47.808;7.636;2023-03-01T09:08:40;1.70;99.90
21031;DHT22;61072;47.808;7.636;2023-03-01T09:11:09;1.70;99.90
21031;DHT22;61072;47.808;7.636;2023-03-01T09:13:36;1.80;99.90
21031;DHT22;61072;47.808;7.636;2023-03-01T09:16:05;1.90;99.90
21031;DHT22;61072;47.808;7.636;2023-03-01T09:18:33;1.90;99.90
21031;DHT22;61072;47.808;7.636;2023-03-01T09:21:05;1.90;99.90
21031;DHT22;61072;47.808;7.636;2023-03-01T09:23:38;1.80;99.90
21031;DHT22;61072;47.808;7.636;2023-03-01T09:26:06;1.80;99.90
21031;DHT22;61072;47.808;7.636;2023-03-01T09:28:35;1.80;99.90
21031;DHT22;61072;47.808;7.636;2023-03-01T09:31:02;1.70;99.90
21031;DHT22;61072;47.808;7.636;2023-03-01T09:33:31;1.70;99.90
21031;DHT22;61072;47.808;7.636;2023-03-01T09:35:59;1.70;99.90
21031;DHT22;61072;47.808;7.636;2023-03-01T09:38:27;1.70;99.90
21031;DHT22;61072;47.808;7.636;2023-03-01T09:40:53;1.70;99.90
21031;DHT22;61072;47.808;7.636;2023-03-01T09:45:55;1.80;99.90
21031;DHT22;61072;47.808;7.636;2023-03-01T09:48:26;1.80;99.90
21031;DHT22;61072;47.808;7.636;2023-03-01T09:50:54;2.00;99.90
21031;DHT22;61072;47.808;7.636;2023-03-01T09:53:23;2.00;99.90
21031;DHT22;61072;47.808;7.636;2023-03-01T09:56:00;2.10;99.90
21031;DHT22;61072;47.808;7.636;2023-03-01T09:58:54;2.30;99.90
21031;DHT22;61072;47.808;7.636;2023-03-01T10:01:28;2.30;99.90
21031;DHT22;61072;47.808;7.636;2023-03-01T10:06:35;2.40;99.90
21031;DHT22;61072;47.808;7.636;2023-03-01T10:09:07;2.50;99.90
21031;DHT22;61072;47.808;7.636;2023-03-01T10:11:39;2.60;99.90
21031;DHT22;61072;47.808;7.636;2023-03-01T10:17:19;2.50;99.90
21031;DHT22;61072;47.808;7.636;2023-03-01T10:19:50;2.60;99.90
21031;DHT22;61072;47.808;7.636;2023-03-01T10:22:27;2.60;99.90
21031;DHT22;61072;47.808;7.636;2023-03-01T10:24:59;2.70;99.90
21031;DHT22;61072;47.808;7.636;2023-03-01T10:32:49;2.80;99.90
21031;DHT22;61072;47.808;7.636;2023-03-01T10:35:29;2.80;99.90
21031;DHT22;61072;47.808;7.636;2023-03-01T10:38:05;2.80;99.90
21031;DHT22;61072;47.808;7.636;2023-03-01T10:40:34;2.70;99.90
21031;DHT22;61072;47.808;7.636;2023-03-01T10:43:04;2.80;99.90
21031;DHT22;61072;47.808;7.636;2023-03-01T10:45:40;2.80;99.90
21031;DHT22;61072;47.808;7.636;2023-03-01T10:48:25;2.90;99.90
21031;DHT22;61072;47.808;7.636;2023-03-01T10:53:34;2.80;99.90
21031;DHT22;61072;47.808;7.636;2023-03-01T10:56:08;2.90;99.90
21031;DHT22;61072;47.808;7.636;2023-03-01T10:58:37;2.90;99.90
21031;DHT22;61072;47.808;7.636;2023-03-01T11:03:43;3.20;99.90
21031;DHT22;61072;47.808;7.636;2023-03-01T11:08:44;3.20;99.90
21031;DHT22;61072;47.808;7.636;2023-03-01T11:11:30;3.30;99.90
21031;DHT22;61072;47.808;7.636;2023-03-01T11:14:15;3.30;99.90
21031;DHT22;61072;47.808;7.636;2023-03-01T11:17:04;3.30;99.90
21031;DHT22;61072;47.808;7.636;2023-03-01T11:19:32;3.30;99.90
21031;DHT22;61072;47.808;7.636;2023-03-01T11:22:19;3.30;99.90
21031;DHT22;61072;47.808;7.636;2023-03-01T11:24:51;3.40;99.90
21031;DHT22;61072;47.808;7.636;2023-03-01T11:27:40;3.50;99.90
21031;DHT22;61072;47.808;7.636;2023-03-01T11:30:40;3.70;99.90
21031;DHT22;61072;47.808;7.636;2023-03-01T11:33:34;3.70;99.90
21031;DHT22;61072;47.808;7.636;2023-03-01T11:36:58;3.80;99.90
21031;DHT22;61072;47.808;7.636;2023-03-01T11:39:32;3.80;99.90
21031;DHT22;61072;47.808;7.636;2023-03-01T11:42:13;4.00;99.90
21031;DHT22;61072;47.808;7.636;2023-03-01T11:44:47;4.10;99.90
21031;DHT22;61072;47.808;7.636;2023-03-01T11:50:13;4.30;99.90
21031;DHT22;61072;47.808;7.636;2023-03-01T11:52:45;4.30;99.90
21031;DHT22;61072;47.808;7.636;2023-03-01T11:57:51;4.40;99.90
21031;DHT22;61072;47.808;7.636;2023-03-01T12:01:02;4.50;99.90
21031;DHT22;61072;47.808;7.636;2023-03-01T12:03:43;4.60;99.90
21031;DHT22;61072;47.808;7.636;2023-03-01T12:06:31;4.70;99.90
21031;DHT22;61072;47.808;7.636;2023-03-01T12:12:05;4.90;99.90
21031;DHT22;61072;47.808;7.636;2023-03-01T12:25:18;5.40;99.90
21031;DHT22;61072;47.808;7.636;2023-03-01T12:33:29;5.60;99.90
21031;DHT22;61072;47.808;7.636;2023-03-01T12:50:38;6.00;99.90
21031;DHT22;61072;47.808;7.636;2023-03-01T12:55:49;6.00;99.90
21031;DHT22;61072;47.808;7.636;2023-03-01T12:58:35;6.10;99.90
21031;DHT22;61072;47.808;7.636;2023-03-01T13:01:36;6.20;99.90
21031;DHT22;61072;47.808;7.636;2023-03-01T13:09:50;6.20;99.90
21031;DHT22;61072;47.808;7.636;2023-03-01T13:15:24;6.30;99.90
21031;DHT22;61072;47.808;7.636;2023-03-01T13:18:27;6.30;99.90
21031;DHT22;61072;47.808;7.636;2023-03-01T13:20:58;6.30;99.90
21031;DHT22;61072;47.808;7.636;2023-03-01T13:23:28;6.30;99.90
21031;DHT22;61072;47.808;7.636;2023-03-01T13:28:38;6.30;99.90
21031;DHT22;61072;47.808;7.636;2023-03-01T13:34:01;6.40;99.90
21031;DHT22;61072;47.808;7.636;2023-03-01T13:39:18;6.50;99.90
21031;DHT22;61072;47.808;7.636;2023-03-01T13:41:54;6.50;99.90
21031;DHT22;61072;47.808;7.636;2023-03-01T13:44:30;6.60;99.90
21031;DHT22;61072;47.808;7.636;2023-03-01T13:47:16;6.60;99.90
21031;DHT22;61072;47.808;7.636;2023-03-01T13:49:56;6.60;99.90
21031;DHT22;61072;47.808;7.636;2023-03-01T13:55:42;6.70;99.90
21031;DHT22;61072;47.808;7.636;2023-03-01T13:58:46;6.70;99.90
21031;DHT22;61072;47.808;7.636;2023-03-01T14:03:55;6.70;99.90
21031;DHT22;61072;47.808;7.636;2023-03-01T14:06:25;6.80;99.90
21031;DHT22;61072;47.808;7.636;2023-03-01T14:09:12;6.70;99.90
21031;DHT22;61072;47.808;7.636;2023-03-01T14:12:11;6.70;99.90
21031;DHT22;61072;47.808;7.636;2023-03-01T14:18:08;6.70;99.90
21031;DHT22;61072;47.808;7.636;2023-03-01T14:20:29;6.80;99.90
21031;DHT22;61072;47.808;7.636;2023-03-01T14:22:59;6.80;99.90
21031;DHT22;61072;47.808;7.636;2023-03-01T14:25:36;6.80;99.90
21031;DHT22;61072;47.808;7.636;2023-03-01T14:30:50;6.90;99.90
21031;DHT22;61072;47.808;7.636;2023-03-01T14:36:09;6.90;99.90
21031;DHT22;61072;47.808;7.636;2023-03-01T14:38:47;6.90;99.90
21031;DHT22;61072;47.808;7.636;2023-03-01T14:41:26;6.90;99.90
21031;DHT22;61072;47.808;7.636;2023-03-01T14:44:00;6.90;99.90
21031;DHT22;61072;47.808;7.636;2023-03-01T14:46:35;6.80;99.90
21031;DHT22;61072;47.808;7.636;2023-03-01T14:49:29;6.80;99.90
21031;DHT22;61072;47.808;7.636;2023-03-01T14:52:06;6.70;99.90
21031;DHT22;61072;47.808;7.636;2023-03-01T14:54:46;6.70;99.90
21031;DHT22;61072;47.808;7.636;2023-03-01T14:57:16;6.60;99.90
21031;DHT22;61072;47.808;7.636;2023-03-01T14:59:43;6.60;99.90
21031;DHT22;61072;47.808;7.636;2023-03-01T15:02:17;6.50;99.90
21031;DHT22;61072;47.808;7.636;2023-03-01T15:04:47;6.50;99.90
21031;DHT22;61072;47.808;7.636;2023-03-01T15:07:15;6.50;99.90
21031;DHT22;61072;47.808;7.636;2023-03-01T15:09:42;6.40;99.90
21031;DHT22;61072;47.808;7.636;2023-03-01T15:14:56;6.40;99.90
21031;DHT22;61072;47.808;7.636;2023-03-01T15:17:35;6.40;99.90
21031;DHT22;61072;47.808;7.636;2023-03-01T15:20:06;6.30;99.90
21031;DHT22;61072;47.808;7.636;2023-03-01T15:22:33;6.30;99.90
21031;DHT22;61072;47.808;7.636;2023-03-01T15:25:01;6.20;99.90
21031;DHT22;61072;47.808;7.636;2023-03-01T15:27:28;6.10;99.90
21031;DHT22;61072;47.808;7.636;2023-03-01T15:29:59;6.10;99.90
21031;DHT22;61072;47.808;7.636;2023-03-01T15:32:35;6.00;99.90
21031;DHT22;61072;47.808;7.636;2023-03-01T15:35:42;5.90;99.90
21031;DHT22;61072;47.808;7.636;2023-03-01T15:40:56;5.70;99.90
21031;DHT22;61072;47.808;7.636;2023-03-01T15:43:43;5.60;99.90
21031;DHT22;61072;47.808;7.636;2023-03-01T15:48:48;5.50;99.90
21031;DHT22;61072;47.808;7.636;2023-03-01T15:51:17;5.40;99.90
21031;DHT22;61072;47.808;7.636;2023-03-01T15:53:50;5.30;99.90
21031;DHT22;61072;47.808;7.636;2023-03-01T15:56:20;5.30;99.90
21031;DHT22;61072;47.808;7.636;2023-03-01T15:58:47;5.20;99.90
21031;DHT22;61072;47.808;7.636;2023-03-01T16:01:15;5.20;99.90
21031;DHT22;61072;47.808;7.636;2023-03-01T16:03:45;5.20;99.90
21031;DHT22;61072;47.808;7.636;2023-03-01T16:06:12;5.10;99.90
21031;DHT22;61072;47.808;7.636;2023-03-01T16:08:40;5.10;99.90
21031;DHT22;61072;47.808;7.636;2023-03-01T16:11:19;5.00;99.90
21031;DHT22;61072;47.808;7.636;2023-03-01T16:13:46;5.00;99.90
21031;DHT22;61072;47.808;7.636;2023-03-01T16:16:14;4.90;99.90
21031;DHT22;61072;47.808;7.636;2023-03-01T16:18:44;4.90;99.90
21031;DHT22;61072;47.808;7.636;2023-03-01T16:21:22;4.90;99.90
21031;DHT22;61072;47.808;7.636;2023-03-01T16:23:50;4.80;99.90
21031;DHT22;61072;47.808;7.636;2023-03-01T16:26:18;4.80;99.90
21031;DHT22;61072;47.808;7.636;2023-03-01T16:28:47;4.80;99.90
21031;DHT22;61072;47.808;7.636;2023-03-01T16:31:18;4.70;99.90
21031;DHT22;61072;47.808;7.636;2023-03-01T16:33:45;4.70;99.90
21031;DHT22;61072;47.808;7.636;2023-03-01T16:36:20;4.60;99.90
21031;DHT22;61072;47.808;7.636;2023-03-01T16:38:47;4.60;99.90
21031;DHT22;61072;47.808;7.636;2023-03-01T16:41:16;4.60;99.90
21031;DHT22;61072;47.808;7.636;2023-03-01T16:43:43;4.60;99.90
21031;DHT22;61072;47.808;7.636;2023-03-01T16:46:22;4.50;99.90
21031;DHT22;61072;47.808;7.636;2023-03-01T16:48:50;4.50;99.90
21031;DHT22;61072;47.808;7.636;2023-03-01T16:51:18;4.40;99.90
21031;DHT22;61072;47.808;7.636;2023-03-01T16:53:45;4.40;99.90
21031;DHT22;61072;47.808;7.636;2023-03-01T16:56:13;4.30;99.90
21031;DHT22;61072;47.808;7.636;2023-03-01T16:58:40;4.30;99.90
21031;DHT22;61072;47.808;7.636;2023-03-01T17:01:14;4.20;99.90
21031;DHT22;61072;47.808;7.636;2023-03-01T17:03:41;4.20;99.90
21031;DHT22;61072;47.808;7.636;2023-03-01T17:06:11;4.10;99.90
21031;DHT22;61072;47.808;7.636;2023-03-01T17:08:38;4.10;99.90
21031;DHT22;61072;47.808;7.636;2023-03-01T17:11:16;4.10;99.90
21031;DHT22;61072;47.808;7.636;2023-03-01T17:13:44;4.00;99.90
21031;DHT22;61072;47.808;7.636;2023-03-01T17:16:13;4.00;99.90
21031;DHT22;61072;47.808;7.636;2023-03-01T17:18:40;3.90;99.90
21031;DHT22;61072;47.808;7.636;2023-03-01T17:21:08;3.90;99.90
21031;DHT22;61072;47.808;7.636;2023-03-01T17:23:37;3.90;99.90
21031;DHT22;61072;47.808;7.636;2023-03-01T17:26:05;3.80;99.90
21031;DHT22;61072;47.808;7.636;2023-03-01T17:28:34;3.80;99.90
21031;DHT22;61072;47.808;7.636;2023-03-01T17:31:01;3.70;99.90
21031;DHT22;61072;47.808;7.636;2023-03-01T17:33:29;3.70;99.90
21031;DHT22;61072;47.808;7.636;2023-03-01T17:35:59;3.70;99.90
21031;DHT22;61072;47.808;7.636;2023-03-01T17:38:26;3.60;99.90
21031;DHT22;61072;47.808;7.636;2023-03-01T17:40:53;3.60;99.90
21031;DHT22;61072;47.808;7.636;2023-03-01T17:43:19;3.60;99.90
21031;DHT22;61072;47.808;7.636;2023-03-01T17:45:46;3.50;99.90
21031;DHT22;61072;47.808;7.636;2023-03-01T17:48:15;3.50;99.90
21031;DHT22;61072;47.808;7.636;2023-03-01T17:50:42;3.50;99.90
21031;DHT22;61072;47.808;7.636;2023-03-01T17:53:09;3.50;99.90
21031;DHT22;61072;47.808;7.636;2023-03-01T17:55:38;3.50;99.90